Time;durP1;ratioP1;P1;durP2;ratioP2;P2;SDS_P1;SDS_P2;PMS_P1;PMS_P2;Temp;Humidity;BMP_temperature;BMP_pressure;BME280_temperature;BME280_humidity;BME280_pressure;Samples;Min_cycle;Max_cycle;Signal;HPM_P1;HPM_P2
2022/01/22 00:00:46;;;;;;;;;;;6.50;99.90;;;;;;6307521;22;19902;-57
2022/01/22 00:03:13;;;;;;;;;;;6.60;99.90;;;;;;6306893;22;19899;-57
2022/01/22 00:05:40;;;;;;;;;;;6.60;99.90;;;;;;6280149;22;19913;-57
2022/01/22 00:08:06;;;;;;;;;;;6.60;99.90;;;;;;6255999;22;19907;-57
2022/01/22 00:10:34;;;;;;;;;;;6.70;99.90;;;;;;6308552;22;19982;-55
2022/01/22 00:15:29;;;;;;;;;;;6.60;99.90;;;;;;6320713;22;19974;-58
2022/01/22 00:17:56;;;;;;;;;;;6.60;99.90;;;;;;6258660;22;19986;-56
2022/01/22 00:20:24;;;;;;;;;;;6.60;99.90;;;;;;6284948;22;19899;-56
2022/01/22 00:22:50;;;;;;;;;;;6.60;99.90;;;;;;6258783;22;19914;-56
2022/01/22 00:25:17;;;;;;;;;;;6.60;99.90;;;;;;6283993;22;19907;-53
2022/01/22 00:27:45;;;;;;;;;;;6.60;99.90;;;;;;6284756;22;19983;-50
2022/01/22 00:30:12;;;;;;;;;;;6.60;99.90;;;;;;6284330;22;19966;-51
2022/01/22 00:32:39;;;;;;;;;;;6.60;99.90;;;;;;6282214;22;19994;-50
2022/01/22 00:35:06;;;;;;;;;;;6.60;99.90;;;;;;6257910;22;19914;-55
2022/01/22 00:37:33;;;;;;;;;;;6.60;99.90;;;;;;6311164;22;19905;-56
2022/01/22 00:40:03;;;;;;;;;;;6.60;99.90;;;;;;6282656;22;20381;-55
2022/01/22 00:42:32;;;;;;;;;;;6.60;99.90;;;;;;6309609;22;19926;-55
2022/01/22 00:45:03;;;;;;;;;;;6.60;99.90;;;;;;6283774;22;19982;-57
2022/01/22 00:47:29;;;;;;;;;;;6.60;99.90;;;;;;6282819;22;19903;-55
2022/01/22 00:49:55;;;;;;;;;;;6.60;99.90;;;;;;6282829;22;19910;-52
2022/01/22 00:52:21;;;;;;;;;;;6.60;99.90;;;;;;6276038;22;19911;-58
2022/01/22 00:54:47;;;;;;;;;;;6.60;99.90;;;;;;6278608;22;19957;-56
2022/01/22 00:57:14;;;;;;;;;;;6.60;99.90;;;;;;6278444;22;19974;-55
2022/01/22 00:59:39;;;;;;;;;;;6.60;99.90;;;;;;6304002;22;20177;-53
2022/01/22 01:02:06;;;;;;;;;;;6.50;99.90;;;;;;6279424;22;19942;-52
2022/01/22 01:04:35;;;;;;;;;;;6.60;99.90;;;;;;6303979;22;19899;-54
2022/01/22 01:07:02;;;;;;;;;;;6.60;99.90;;;;;;6278546;22;19927;-57
2022/01/22 01:09:30;;;;;;;;;;;6.60;99.90;;;;;;6277874;22;19923;-56
2022/01/22 01:12:01;;;;;;;;;;;6.60;99.90;;;;;;6278966;22;19903;-56
2022/01/22 01:14:38;;;;;;;;;;;6.60;99.90;;;;;;6279631;22;20306;-57
2022/01/22 01:33:54;;;;;;;;;;;6.60;99.90;;;;;;6272565;22;19968;-54
2022/01/22 01:36:19;;;;;;;;;;;6.50;99.90;;;;;;6299621;22;19910;-52
2022/01/22 01:38:51;;;;;;;;;;;6.50;99.90;;;;;;6298243;22;19899;-53
2022/01/22 01:41:25;;;;;;;;;;;6.50;99.90;;;;;;6296675;22;19906;-55
2022/01/22 01:43:51;;;;;;;;;;;6.60;99.90;;;;;;6270645;22;19910;-55
2022/01/22 01:46:16;;;;;;;;;;;6.50;99.90;;;;;;6296854;22;19911;-56
2022/01/22 01:48:43;;;;;;;;;;;6.50;99.90;;;;;;6272499;22;20331;-56
2022/01/22 01:51:10;;;;;;;;;;;6.50;99.90;;;;;;6273031;22;19899;-52
2022/01/22 01:59:15;;;;;;;;;;;6.50;99.90;;;;;;6275529;22;19932;-51
2022/01/22 02:01:40;;;;;;;;;;;6.60;99.90;;;;;;6272128;22;19949;-54
2022/01/22 02:04:09;;;;;;;;;;;6.60;99.90;;;;;;6297861;22;20236;-54
2022/01/22 02:06:34;;;;;;;;;;;6.60;99.90;;;;;;6274688;22;19914;-58
2022/01/22 02:09:01;;;;;;;;;;;6.50;99.90;;;;;;6276840;22;19899;-55
2022/01/22 02:11:28;;;;;;;;;;;6.50;99.90;;;;;;6276350;22;19903;-58
2022/01/22 02:14:07;;;;;;;;;;;6.50;99.90;;;;;;6275040;22;19910;-58
2022/01/22 02:24:49;;;;;;;;;;;6.50;99.90;;;;;;6276944;22;19922;-57
2022/01/22 02:27:14;;;;;;;;;;;6.50;99.90;;;;;;6274056;22;19903;-58
2022/01/22 02:29:40;;;;;;;;;;;6.50;99.90;;;;;;6299496;22;19969;-57
2022/01/22 02:32:45;;;;;;;;;;;6.50;99.90;;;;;;6298965;22;20254;-58
2022/01/22 02:35:17;;;;;;;;;;;6.50;99.90;;;;;;6275778;22;19907;-54
2022/01/22 02:37:49;;;;;;;;;;;6.50;99.90;;;;;;6276446;22;19899;-54
2022/01/22 02:40:23;;;;;;;;;;;6.50;99.90;;;;;;6274360;22;19907;-57
2022/01/22 02:42:48;;;;;;;;;;;6.50;99.90;;;;;;6303089;22;19956;-56
2022/01/22 02:45:18;;;;;;;;;;;6.50;99.90;;;;;;6274482;22;19899;-56
2022/01/22 02:47:44;;;;;;;;;;;6.50;99.90;;;;;;6273990;22;19899;-55
2022/01/22 02:50:09;;;;;;;;;;;6.50;99.90;;;;;;6275956;22;19899;-58
2022/01/22 02:52:34;;;;;;;;;;;6.60;99.90;;;;;;6277486;22;19950;-54
2022/01/22 02:55:00;;;;;;;;;;;6.60;99.90;;;;;;6277442;22;20037;-56
2022/01/22 02:57:26;;;;;;;;;;;6.50;99.90;;;;;;6277895;22;19973;-55
2022/01/22 02:59:52;;;;;;;;;;;6.50;99.90;;;;;;6278226;22;19930;-54
2022/01/22 03:02:17;;;;;;;;;;;6.50;99.90;;;;;;6303342;22;20045;-54
2022/01/22 03:04:43;;;;;;;;;;;6.60;99.90;;;;;;6302010;22;19899;-51
2022/01/22 03:07:09;;;;;;;;;;;6.60;99.90;;;;;;6303423;22;19907;-54
2022/01/22 03:09:41;;;;;;;;;;;6.60;99.90;;;;;;6275176;22;19992;-57
2022/01/22 03:17:35;;;;;;;;;;;6.60;99.90;;;;;;6287425;22;19961;-54
2022/01/22 03:20:18;;;;;;;;;;;6.60;99.90;;;;;;6300117;22;19899;-56
2022/01/22 03:27:53;;;;;;;;;;;6.60;99.90;;;;;;6274534;22;20288;-54
2022/01/22 03:30:18;;;;;;;;;;;6.60;99.90;;;;;;6273304;22;19899;-54
2022/01/22 03:32:48;;;;;;;;;;;6.60;99.90;;;;;;6300120;22;19974;-52
2022/01/22 03:37:43;;;;;;;;;;;6.60;99.90;;;;;;6286380;22;19949;-55
2022/01/22 03:40:09;;;;;;;;;;;6.60;99.90;;;;;;6273940;22;19990;-54
2022/01/22 03:42:35;;;;;;;;;;;6.60;99.90;;;;;;6272654;22;19899;-54
2022/01/22 03:45:01;;;;;;;;;;;6.60;99.90;;;;;;6275146;22;19899;-53
2022/01/22 03:47:27;;;;;;;;;;;6.60;99.90;;;;;;6272851;22;19903;-56
2022/01/22 03:49:52;;;;;;;;;;;6.60;99.90;;;;;;6297920;22;19918;-55
2022/01/22 03:52:18;;;;;;;;;;;6.60;99.90;;;;;;6273566;22;19911;-57
2022/01/22 03:54:43;;;;;;;;;;;6.60;99.90;;;;;;6301060;22;19993;-54
2022/01/22 03:57:09;;;;;;;;;;;6.60;99.90;;;;;;6275954;22;19926;-54
2022/01/22 03:59:35;;;;;;;;;;;6.60;99.90;;;;;;6301802;22;20185;-55
2022/01/22 04:04:42;;;;;;;;;;;6.60;99.90;;;;;;6287724;22;19899;-52
2022/01/22 04:07:58;;;;;;;;;;;6.60;99.90;;;;;;6300580;22;20206;-58
2022/01/22 04:10:13;;;;;;;;;;;6.60;99.90;;;;;;6275716;22;20181;-55
2022/01/22 04:12:48;;;;;;;;;;;6.60;99.90;;;;;;6272716;22;19936;-56
2022/01/22 04:15:16;;;;;;;;;;;6.60;99.90;;;;;;6272262;22;19903;-53
2022/01/22 04:25:46;;;;;;;;;;;6.60;99.90;;;;;;6273896;22;19991;-53
2022/01/22 04:28:12;;;;;;;;;;;6.60;99.90;;;;;;6273916;22;20266;-58
2022/01/22 04:30:38;;;;;;;;;;;6.60;99.90;;;;;;6298204;22;20281;-53
2022/01/22 04:33:04;;;;;;;;;;;6.60;99.90;;;;;;6299537;22;20071;-57
2022/01/22 04:35:30;;;;;;;;;;;6.60;99.90;;;;;;6273520;22;19899;-55
2022/01/22 04:37:56;;;;;;;;;;;6.60;99.90;;;;;;6275461;22;19899;-58
2022/01/22 04:40:21;;;;;;;;;;;6.60;99.90;;;;;;6301216;22;20159;-53
2022/01/22 04:42:47;;;;;;;;;;;6.60;99.90;;;;;;6276646;22;19981;-55
2022/01/22 04:45:26;;;;;;;;;;;6.60;99.90;;;;;;6301787;22;20245;-57
2022/01/22 04:48:23;;;;;;;;;;;6.60;99.90;;;;;;6276182;22;19899;-53
2022/01/22 04:55:55;;;;;;;;;;;6.60;99.90;;;;;;6306481;22;21167;-57
2022/01/22 04:58:20;;;;;;;;;;;6.60;99.90;;;;;;6281003;22;19981;-53
2022/01/22 05:00:45;;;;;;;;;;;6.60;99.90;;;;;;6304328;22;20343;-57
2022/01/22 05:03:12;;;;;;;;;;;6.60;99.90;;;;;;6306159;22;19907;-51
2022/01/22 05:05:37;;;;;;;;;;;6.60;99.90;;;;;;6305509;22;19914;-51
2022/01/22 05:08:03;;;;;;;;;;;6.60;99.90;;;;;;6280798;22;19902;-53
2022/01/22 05:10:28;;;;;;;;;;;6.60;99.90;;;;;;6279072;22;19998;-57
2022/01/22 05:12:54;;;;;;;;;;;6.60;99.90;;;;;;6279085;22;19902;-57
2022/01/22 05:15:20;;;;;;;;;;;6.60;99.90;;;;;;6278623;22;19960;-52
2022/01/22 05:17:46;;;;;;;;;;;6.60;99.90;;;;;;6280457;22;19903;-56
2022/01/22 05:20:19;;;;;;;;;;;6.60;99.90;;;;;;6306657;22;19929;-53
2022/01/22 05:25:48;;;;;;;;;;;6.60;99.90;;;;;;6293950;22;19915;-54
2022/01/22 05:33:28;;;;;;;;;;;6.60;99.90;;;;;;6316522;22;20259;-55
2022/01/22 05:38:38;;;;;;;;;;;6.60;99.90;;;;;;6303948;22;19914;-57
2022/01/22 05:41:04;;;;;;;;;;;6.60;99.90;;;;;;6278906;22;19911;-55
2022/01/22 05:43:30;;;;;;;;;;;6.60;99.90;;;;;;6276707;22;19960;-53
2022/01/22 05:45:55;;;;;;;;;;;6.60;99.90;;;;;;6276884;22;19907;-57
2022/01/22 05:48:21;;;;;;;;;;;6.60;99.90;;;;;;6275291;22;20189;-53
2022/01/22 05:51:02;;;;;;;;;;;6.60;99.90;;;;;;6278880;22;19903;-51
2022/01/22 06:01:44;;;;;;;;;;;6.60;99.90;;;;;;6304298;22;20337;-57
2022/01/22 06:04:09;;;;;;;;;;;6.60;99.90;;;;;;6304200;22;19909;-56
2022/01/22 06:06:35;;;;;;;;;;;6.60;99.90;;;;;;6302968;22;20143;-53
2022/01/22 06:09:03;;;;;;;;;;;6.60;99.90;;;;;;6302892;22;20277;-56
2022/01/22 06:11:29;;;;;;;;;;;6.60;99.90;;;;;;6302737;22;20016;-55
2022/01/22 06:13:55;;;;;;;;;;;6.60;99.90;;;;;;6301894;22;20348;-55
2022/01/22 06:16:23;;;;;;;;;;;6.60;99.90;;;;;;6276860;22;20455;-58
2022/01/22 06:18:49;;;;;;;;;;;6.60;99.90;;;;;;6275330;22;19906;-56
2022/01/22 06:21:15;;;;;;;;;;;6.60;99.90;;;;;;6275948;22;19914;-54
2022/01/22 06:23:41;;;;;;;;;;;6.60;99.90;;;;;;6302738;22;19968;-53
2022/01/22 06:26:06;;;;;;;;;;;6.60;99.90;;;;;;6277904;22;20193;-57
2022/01/22 06:28:32;;;;;;;;;;;6.60;99.90;;;;;;6274454;22;19974;-51
2022/01/22 06:30:58;;;;;;;;;;;6.60;99.90;;;;;;6275317;22;19974;-57
2022/01/22 06:33:23;;;;;;;;;;;6.50;99.90;;;;;;6277062;22;19980;-55
2022/01/22 06:35:49;;;;;;;;;;;6.50;99.90;;;;;;6279144;22;19903;-58
2022/01/22 06:38:15;;;;;;;;;;;6.50;99.90;;;;;;6277460;22;20289;-51
2022/01/22 06:43:06;;;;;;;;;;;6.50;99.90;;;;;;6313525;22;20047;-52
2022/01/22 06:45:31;;;;;;;;;;;6.50;99.90;;;;;;6276494;22;19903;-57
2022/01/22 06:47:57;;;;;;;;;;;6.50;99.90;;;;;;6277223;22;20227;-56
2022/01/22 06:50:22;;;;;;;;;;;6.50;99.90;;;;;;6276800;22;19993;-56
2022/01/22 06:52:55;;;;;;;;;;;6.50;99.90;;;;;;6304018;22;19954;-53
2022/01/22 06:55:27;;;;;;;;;;;6.50;99.90;;;;;;6277996;22;19964;-55
2022/01/22 06:57:53;;;;;;;;;;;6.50;99.90;;;;;;6305227;22;19963;-55
2022/01/22 07:00:18;;;;;;;;;;;6.50;99.90;;;;;;6306222;22;19935;-56
2022/01/22 07:02:43;;;;;;;;;;;6.50;99.90;;;;;;6279293;22;19967;-55
2022/01/22 07:05:09;;;;;;;;;;;6.50;99.90;;;;;;6278091;22;19903;-54
2022/01/22 07:07:36;;;;;;;;;;;6.50;99.90;;;;;;6276607;22;19906;-54
2022/01/22 07:10:02;;;;;;;;;;;6.50;99.90;;;;;;6278511;22;19907;-53
2022/01/22 07:12:27;;;;;;;;;;;6.50;99.90;;;;;;6277781;22;19907;-57
2022/01/22 07:14:53;;;;;;;;;;;6.50;99.90;;;;;;6305608;22;19914;-54
2022/01/22 07:17:18;;;;;;;;;;;6.50;99.90;;;;;;6276010;22;20278;-54
2022/01/22 07:19:44;;;;;;;;;;;6.50;99.90;;;;;;6274393;22;19914;-53
2022/01/22 07:22:32;;;;;;;;;;;6.50;99.90;;;;;;6272440;22;19941;-52
2022/01/22 07:24:55;;;;;;;;;;;6.50;99.90;;;;;;6301453;22;20300;-52
2022/01/22 07:27:21;;;;;;;;;;;6.50;99.90;;;;;;6273471;22;19984;-53
2022/01/22 07:29:48;;;;;;;;;;;6.50;99.90;;;;;;6270846;22;19903;-55
2022/01/22 07:32:25;;;;;;;;;;;6.50;99.90;;;;;;6273192;22;20300;-55
2022/01/22 07:34:50;;;;;;;;;;;6.50;99.90;;;;;;6273525;22;19966;-56
2022/01/22 07:37:15;;;;;;;;;;;6.50;99.90;;;;;;6275302;22;19903;-52
2022/01/22 07:39:41;;;;;;;;;;;6.50;99.90;;;;;;6301689;22;19957;-56
2022/01/22 07:42:07;;;;;;;;;;;6.50;99.90;;;;;;6273446;22;19915;-54
2022/01/22 07:44:32;;;;;;;;;;;6.50;99.90;;;;;;6302668;22;19907;-56
2022/01/22 07:46:57;;;;;;;;;;;6.50;99.90;;;;;;6300446;22;20049;-55
2022/01/22 07:49:23;;;;;;;;;;;6.50;99.90;;;;;;6272940;22;19902;-55
2022/01/22 07:51:48;;;;;;;;;;;6.40;99.90;;;;;;6299468;22;20010;-51
2022/01/22 07:54:14;;;;;;;;;;;6.50;99.90;;;;;;6272792;22;20155;-56
2022/01/22 07:56:40;;;;;;;;;;;6.50;99.90;;;;;;6299734;22;19903;-56
2022/01/22 07:59:05;;;;;;;;;;;6.50;99.90;;;;;;6299896;22;20058;-56
2022/01/22 08:01:31;;;;;;;;;;;6.50;99.90;;;;;;6272080;22;20123;-56
2022/01/22 08:03:56;;;;;;;;;;;6.40;99.90;;;;;;6274134;22;19903;-55
2022/01/22 08:06:22;;;;;;;;;;;6.40;99.90;;;;;;6301325;22;20361;-51
2022/01/22 08:08:47;;;;;;;;;;;6.40;99.90;;;;;;6274748;22;19978;-52
2022/01/22 08:11:13;;;;;;;;;;;6.40;99.90;;;;;;6301337;22;20035;-52
2022/01/22 08:13:38;;;;;;;;;;;6.40;99.90;;;;;;6273680;22;20189;-57
2022/01/22 08:16:04;;;;;;;;;;;6.50;99.90;;;;;;6274113;22;20269;-56
2022/01/22 08:18:29;;;;;;;;;;;6.50;99.90;;;;;;6300901;22;20258;-56
2022/01/22 08:20:54;;;;;;;;;;;6.50;99.90;;;;;;6274400;22;19903;-56
2022/01/22 08:23:20;;;;;;;;;;;6.50;99.90;;;;;;6300366;22;19960;-51
2022/01/22 08:25:47;;;;;;;;;;;6.50;99.90;;;;;;6298830;22;19919;-55
2022/01/22 08:31:03;;;;;;;;;;;6.50;99.90;;;;;;6302243;22;19910;-55
2022/01/22 08:35:52;;;;;;;;;;;6.50;99.90;;;;;;6274228;22;19903;-58
2022/01/22 08:36:17;;;;;;;;;;;6.50;99.90;;;;;;6302899;22;19930;-57
2022/01/22 08:38:43;;;;;;;;;;;6.50;99.90;;;;;;6276391;22;19982;-55
2022/01/22 08:41:09;;;;;;;;;;;6.50;99.90;;;;;;6274422;22;20390;-54
2022/01/22 08:43:35;;;;;;;;;;;6.50;99.90;;;;;;6274181;22;19903;-56
2022/01/22 08:46:02;;;;;;;;;;;6.50;99.90;;;;;;6275593;22;20010;-51
2022/01/22 08:48:28;;;;;;;;;;;6.60;99.90;;;;;;6274519;22;19914;-57
2022/01/22 08:50:54;;;;;;;;;;;6.60;99.90;;;;;;6275173;22;19903;-55
2022/01/22 08:53:19;;;;;;;;;;;6.60;99.90;;;;;;6301893;22;20058;-56
2022/01/22 08:55:45;;;;;;;;;;;6.60;99.90;;;;;;6302084;22;19938;-51
2022/01/22 08:58:10;;;;;;;;;;;6.60;99.90;;;;;;6275834;22;19903;-54
2022/01/22 09:00:37;;;;;;;;;;;6.60;99.90;;;;;;6300768;22;19926;-57
2022/01/22 09:03:04;;;;;;;;;;;6.60;99.90;;;;;;6302034;22;19980;-53
2022/01/22 09:05:34;;;;;;;;;;;6.60;99.90;;;;;;6275909;22;19907;-53
2022/01/22 09:08:00;;;;;;;;;;;6.60;99.90;;;;;;6274521;22;19907;-56
2022/01/22 09:10:25;;;;;;;;;;;6.60;99.90;;;;;;6300661;22;19945;-54
2022/01/22 09:12:51;;;;;;;;;;;6.60;99.90;;;;;;6302205;22;19930;-51
2022/01/22 09:15:16;;;;;;;;;;;6.60;99.90;;;;;;6275850;22;19914;-52
2022/01/22 09:17:47;;;;;;;;;;;6.60;99.90;;;;;;6273748;22;20316;-57
2022/01/22 09:20:19;;;;;;;;;;;6.70;99.90;;;;;;6272537;22;20289;-55
2022/01/22 09:22:44;;;;;;;;;;;6.70;99.90;;;;;;6275006;22;19907;-53
2022/01/22 09:25:15;;;;;;;;;;;6.70;99.90;;;;;;6276877;22;20212;-56
2022/01/22 09:27:40;;;;;;;;;;;6.70;99.90;;;;;;6277639;22;19907;-54
2022/01/22 09:30:06;;;;;;;;;;;6.70;99.90;;;;;;6278647;22;19910;-55
2022/01/22 09:32:31;;;;;;;;;;;6.70;99.90;;;;;;6304154;22;19968;-52
2022/01/22 09:34:57;;;;;;;;;;;6.70;99.90;;;;;;6275520;22;19903;-52
2022/01/22 09:37:23;;;;;;;;;;;6.70;99.90;;;;;;6299914;22;20094;-57
2022/01/22 09:39:48;;;;;;;;;;;6.70;99.90;;;;;;6298563;22;19919;-54
2022/01/22 09:42:14;;;;;;;;;;;6.70;99.90;;;;;;6271654;22;20093;-56
2022/01/22 09:44:41;;;;;;;;;;;6.70;99.90;;;;;;6298693;22;20269;-55
2022/01/22 09:47:07;;;;;;;;;;;6.70;99.90;;;;;;6296887;22;19980;-55
2022/01/22 09:49:33;;;;;;;;;;;6.70;99.90;;;;;;6271514;22;19907;-55
2022/01/22 09:51:58;;;;;;;;;;;6.70;99.90;;;;;;6274614;22;20167;-54
2022/01/22 09:54:23;;;;;;;;;;;6.70;99.90;;;;;;6273390;22;19911;-55
2022/01/22 09:56:49;;;;;;;;;;;6.70;99.90;;;;;;6272142;22;19917;-54
2022/01/22 09:59:15;;;;;;;;;;;6.80;99.90;;;;;;6273674;22;19903;-52
2022/01/22 10:01:40;;;;;;;;;;;6.80;99.90;;;;;;6299975;22;19970;-53
2022/01/22 10:04:06;;;;;;;;;;;6.80;99.90;;;;;;6270444;22;19903;-54
2022/01/22 10:06:33;;;;;;;;;;;6.80;99.90;;;;;;6294460;22;19907;-54
2022/01/22 10:09:05;;;;;;;;;;;6.80;99.90;;;;;;6296352;22;19903;-55
2022/01/22 10:11:30;;;;;;;;;;;6.80;99.90;;;;;;6268093;22;20206;-55
2022/01/22 10:13:59;;;;;;;;;;;6.80;99.90;;;;;;6270195;22;20200;-53
2022/01/22 10:16:25;;;;;;;;;;;6.90;99.90;;;;;;6267686;22;19970;-58
2022/01/22 10:19:06;;;;;;;;;;;6.90;99.90;;;;;;6268007;22;19956;-54
2022/01/22 10:21:32;;;;;;;;;;;6.90;99.90;;;;;;6268288;22;19982;-56
2022/01/22 10:24:17;;;;;;;;;;;6.90;99.90;;;;;;6266648;22;19914;-56
2022/01/22 10:26:43;;;;;;;;;;;6.90;99.90;;;;;;6268561;22;19977;-56
2022/01/22 10:29:09;;;;;;;;;;;6.90;99.90;;;;;;6269005;22;19920;-55
2022/01/22 10:31:40;;;;;;;;;;;6.90;99.90;;;;;;6270230;22;19907;-56
2022/01/22 10:34:10;;;;;;;;;;;6.90;99.90;;;;;;6268767;22;19903;-54
2022/01/22 10:36:36;;;;;;;;;;;7.00;99.90;;;;;;6267060;22;19911;-52
2022/01/22 10:39:06;;;;;;;;;;;7.00;99.90;;;;;;6273232;22;19903;-52
2022/01/22 10:41:36;;;;;;;;;;;6.90;99.90;;;;;;6276482;22;19978;-57
2022/01/22 10:44:03;;;;;;;;;;;7.00;99.90;;;;;;6275704;22;19922;-55
2022/01/22 10:46:42;;;;;;;;;;;7.00;99.90;;;;;;6303601;22;19907;-58
2022/01/22 10:49:13;;;;;;;;;;;7.10;99.90;;;;;;6302989;22;19941;-55
2022/01/22 10:51:50;;;;;;;;;;;7.10;99.90;;;;;;6275538;22;19964;-52
2022/01/22 10:54:23;;;;;;;;;;;7.10;99.90;;;;;;6303862;22;19910;-53
2022/01/22 10:56:49;;;;;;;;;;;7.10;99.90;;;;;;6276582;22;20395;-54
2022/01/22 10:59:17;;;;;;;;;;;7.10;99.90;;;;;;6273668;22;19903;-56
2022/01/22 11:01:51;;;;;;;;;;;7.10;99.90;;;;;;6277102;22;19964;-57
2022/01/22 11:04:17;;;;;;;;;;;7.10;99.90;;;;;;6276026;22;20246;-51
2022/01/22 11:06:54;;;;;;;;;;;7.10;99.90;;;;;;6273730;22;19934;-53
2022/01/22 11:09:20;;;;;;;;;;;7.00;99.90;;;;;;6274334;22;20017;-52
2022/01/22 11:11:46;;;;;;;;;;;7.00;99.90;;;;;;6303143;22;19903;-54
2022/01/22 11:14:12;;;;;;;;;;;7.00;99.90;;;;;;6276128;22;19903;-53
2022/01/22 11:16:39;;;;;;;;;;;7.00;99.90;;;;;;6278199;22;19907;-55
2022/01/22 11:19:06;;;;;;;;;;;7.00;99.90;;;;;;6270658;22;19913;-53
2022/01/22 11:21:32;;;;;;;;;;;7.00;99.90;;;;;;6269063;22;20120;-53
2022/01/22 11:23:58;;;;;;;;;;;7.00;99.90;;;;;;6272092;22;19910;-54
2022/01/22 11:26:24;;;;;;;;;;;7.00;99.90;;;;;;6270221;22;19911;-54
2022/01/22 11:28:51;;;;;;;;;;;7.00;99.90;;;;;;6270534;22;20288;-56
2022/01/22 11:31:17;;;;;;;;;;;7.00;99.90;;;;;;6296475;22;20044;-55
2022/01/22 11:33:44;;;;;;;;;;;7.00;99.90;;;;;;6269052;22;19938;-57
2022/01/22 11:36:14;;;;;;;;;;;7.10;99.90;;;;;;6294549;22;19907;-51
2022/01/22 11:38:40;;;;;;;;;;;7.10;99.90;;;;;;6266521;22;20257;-55
2022/01/22 11:41:15;;;;;;;;;;;7.10;99.90;;;;;;6267581;22;19907;-52
2022/01/22 11:44:07;;;;;;;;;;;7.10;99.90;;;;;;6270286;22;20102;-54
2022/01/22 11:46:37;;;;;;;;;;;7.10;99.90;;;;;;6297793;22;19914;-53
2022/01/22 11:49:10;;;;;;;;;;;7.10;99.90;;;;;;6298448;22;19982;-53
2022/01/22 11:51:35;;;;;;;;;;;7.10;99.90;;;;;;6270370;22;19996;-55
2022/01/22 11:54:01;;;;;;;;;;;7.10;99.90;;;;;;6295740;22;20444;-55
2022/01/22 11:56:30;;;;;;;;;;;7.00;99.90;;;;;;6265897;22;19978;-55
2022/01/22 11:58:56;;;;;;;;;;;7.00;99.90;;;;;;6267247;22;19902;-53
2022/01/22 12:01:56;;;;;;;;;;;7.00;99.90;;;;;;6266510;22;19914;-54
2022/01/22 12:04:25;;;;;;;;;;;7.00;99.90;;;;;;6262983;22;19903;-57
2022/01/22 12:07:00;;;;;;;;;;;7.00;99.90;;;;;;6264793;22;20057;-52
2022/01/22 12:09:26;;;;;;;;;;;7.00;99.90;;;;;;6268713;22;19958;-54
2022/01/22 12:14:49;;;;;;;;;;;7.00;99.90;;;;;;6297900;22;20197;-55
2022/01/22 12:17:23;;;;;;;;;;;7.10;99.90;;;;;;6268372;22;20173;-57
2022/01/22 12:20:29;;;;;;;;;;;7.10;99.90;;;;;;6274147;22;19915;-55
2022/01/22 12:22:35;;;;;;;;;;;7.10;99.90;;;;;;6297930;22;19903;-55
2022/01/22 12:25:02;;;;;;;;;;;7.30;99.90;;;;;;6271780;22;19911;-54
2022/01/22 12:27:47;;;;;;;;;;;7.40;99.90;;;;;;6272083;22;19946;-56
2022/01/22 12:30:13;;;;;;;;;;;7.40;99.90;;;;;;6273461;22;20180;-54
2022/01/22 12:32:49;;;;;;;;;;;7.50;99.90;;;;;;6299525;22;20099;-56
2022/01/22 12:35:17;;;;;;;;;;;7.50;99.90;;;;;;6270811;22;19903;-55
2022/01/22 12:37:47;;;;;;;;;;;7.50;99.90;;;;;;6297676;22;19969;-55
2022/01/22 12:40:13;;;;;;;;;;;7.50;99.90;;;;;;6272299;22;19986;-55
2022/01/22 12:42:48;;;;;;;;;;;7.60;99.90;;;;;;6297428;22;19907;-55
2022/01/22 12:45:13;;;;;;;;;;;7.60;99.90;;;;;;6296168;22;19906;-53
2022/01/22 12:47:44;;;;;;;;;;;7.60;99.90;;;;;;6271272;22;20004;-57
2022/01/22 12:50:10;;;;;;;;;;;7.60;99.90;;;;;;6269306;22;20204;-54
2022/01/22 12:52:37;;;;;;;;;;;7.60;99.90;;;;;;6263104;22;19939;-53
2022/01/22 12:55:16;;;;;;;;;;;7.50;99.90;;;;;;6289558;22;20286;-51
2022/01/22 12:57:42;;;;;;;;;;;7.50;99.90;;;;;;6266113;22;19903;-55
2022/01/22 13:00:12;;;;;;;;;;;7.50;99.90;;;;;;6265362;22;19952;-55
2022/01/22 13:02:39;;;;;;;;;;;7.50;99.90;;;;;;6267367;22;19903;-53
2022/01/22 13:05:05;;;;;;;;;;;7.50;99.90;;;;;;6267681;22;19945;-52
2022/01/22 13:07:37;;;;;;;;;;;7.50;99.90;;;;;;6266670;22;20285;-52
2022/01/22 13:10:06;;;;;;;;;;;7.50;99.90;;;;;;6267799;22;20293;-55
2022/01/22 13:12:32;;;;;;;;;;;7.50;99.90;;;;;;6265914;22;19970;-55
2022/01/22 13:14:58;;;;;;;;;;;7.50;99.90;;;;;;6266697;22;20325;-57
2022/01/22 13:17:28;;;;;;;;;;;7.50;99.90;;;;;;6290202;22;20303;-53
2022/01/22 13:19:53;;;;;;;;;;;7.60;99.90;;;;;;6266849;22;19907;-53
2022/01/22 13:22:19;;;;;;;;;;;7.60;99.90;;;;;;6290938;22;20123;-54
2022/01/22 13:24:44;;;;;;;;;;;7.60;99.90;;;;;;6265740;22;20189;-53
2022/01/22 13:27:13;;;;;;;;;;;7.60;99.90;;;;;;6286608;22;19965;-53
2022/01/22 13:29:41;;;;;;;;;;;7.60;99.90;;;;;;6295764;22;19931;-56
2022/01/22 13:32:24;;;;;;;;;;;7.70;99.90;;;;;;6273903;22;19907;-53
2022/01/22 13:34:53;;;;;;;;;;;7.70;99.90;;;;;;6272856;22;19935;-51
2022/01/22 13:48:59;;;;;;;;;;;7.60;99.90;;;;;;6232721;22;20197;-57
2022/01/22 13:51:26;;;;;;;;;;;7.50;99.90;;;;;;6275915;22;20036;-52
2022/01/22 13:53:51;;;;;;;;;;;7.50;99.90;;;;;;6276391;22;19903;-56
2022/01/22 13:56:18;;;;;;;;;;;7.40;99.90;;;;;;6274835;22;20010;-55
2022/01/22 13:58:44;;;;;;;;;;;7.40;99.90;;;;;;6301949;22;19903;-54
2022/01/22 14:01:27;;;;;;;;;;;7.30;99.90;;;;;;6271268;22;20262;-52
2022/01/22 14:04:06;;;;;;;;;;;7.40;99.90;;;;;;6268381;22;20171;-53
2022/01/22 14:06:32;;;;;;;;;;;7.30;99.90;;;;;;6268057;22;20378;-55
2022/01/22 14:09:10;;;;;;;;;;;7.30;99.90;;;;;;6296509;22;19914;-50
2022/01/22 14:11:36;;;;;;;;;;;7.30;99.90;;;;;;6269662;22;19907;-50
2022/01/22 14:14:04;;;;;;;;;;;7.20;99.90;;;;;;6269476;22;19903;-55
2022/01/22 14:16:32;;;;;;;;;;;7.20;99.90;;;;;;6269366;22;19969;-51
2022/01/22 14:18:58;;;;;;;;;;;7.20;99.90;;;;;;6295248;22;19942;-53
2022/01/22 14:21:24;;;;;;;;;;;7.20;99.90;;;;;;6267940;22;19903;-52
2022/01/22 14:23:50;;;;;;;;;;;7.20;99.90;;;;;;6267348;22;19917;-52
2022/01/22 14:26:16;;;;;;;;;;;7.20;99.90;;;;;;6266222;22;19907;-55
2022/01/22 14:28:45;;;;;;;;;;;7.20;99.90;;;;;;6266512;22;20448;-55
2022/01/22 14:31:28;;;;;;;;;;;7.20;99.90;;;;;;6266638;22;20231;-53
2022/01/22 14:33:57;;;;;;;;;;;7.30;99.90;;;;;;6265619;22;19903;-50
2022/01/22 14:36:24;;;;;;;;;;;7.30;99.90;;;;;;6264696;22;19910;-52
2022/01/22 14:38:54;;;;;;;;;;;7.30;99.90;;;;;;6265151;22;20136;-53
2022/01/22 14:44:27;;;;;;;;;;;7.30;99.90;;;;;;6301010;22;20435;-55
2022/01/22 14:47:03;;;;;;;;;;;7.30;99.90;;;;;;6276519;22;19969;-53
2022/01/22 14:49:30;;;;;;;;;;;7.30;99.90;;;;;;6275016;22;20319;-57
2022/01/22 14:51:56;;;;;;;;;;;7.30;99.90;;;;;;6274989;22;20387;-55
2022/01/22 14:54:22;;;;;;;;;;;7.30;99.90;;;;;;6274432;22;20232;-53
2022/01/22 14:56:48;;;;;;;;;;;7.30;99.90;;;;;;6301277;22;19910;-52
2022/01/22 14:59:14;;;;;;;;;;;7.30;99.90;;;;;;6303330;22;19925;-53
2022/01/22 15:01:39;;;;;;;;;;;7.20;99.90;;;;;;6276516;22;20343;-56
2022/01/22 15:04:05;;;;;;;;;;;7.30;99.90;;;;;;6275194;22;19917;-56
2022/01/22 15:06:30;;;;;;;;;;;7.20;99.90;;;;;;6274165;22;19911;-54
2022/01/22 15:08:55;;;;;;;;;;;7.20;99.90;;;;;;6302089;22;19913;-53
2022/01/22 15:11:21;;;;;;;;;;;7.20;99.90;;;;;;6272821;22;19913;-56
2022/01/22 15:13:47;;;;;;;;;;;7.20;99.90;;;;;;6272879;22;20281;-51
2022/01/22 15:16:17;;;;;;;;;;;7.20;99.90;;;;;;6270426;22;19974;-52
2022/01/22 15:18:59;;;;;;;;;;;7.20;99.90;;;;;;6299799;22;20323;-54
2022/01/22 15:21:27;;;;;;;;;;;7.10;99.90;;;;;;6273898;22;19903;-51
2022/01/22 15:23:55;;;;;;;;;;;7.10;99.90;;;;;;6271816;22;19910;-56
2022/01/22 15:26:23;;;;;;;;;;;7.10;99.90;;;;;;6297535;22;20433;-53
2022/01/22 15:28:53;;;;;;;;;;;7.10;99.90;;;;;;6298200;22;19942;-54
2022/01/22 15:31:32;;;;;;;;;;;7.10;99.90;;;;;;6274805;22;19934;-53
2022/01/22 15:34:15;;;;;;;;;;;7.10;99.90;;;;;;6303340;22;19970;-53
2022/01/22 15:36:45;;;;;;;;;;;7.10;99.90;;;;;;6303319;22;19931;-52
2022/01/22 15:39:13;;;;;;;;;;;7.00;99.90;;;;;;6302974;22;19969;-52
2022/01/22 15:41:41;;;;;;;;;;;7.00;99.90;;;;;;6278116;22;19903;-53
2022/01/22 15:44:09;;;;;;;;;;;7.00;99.90;;;;;;6277327;22;19907;-54
2022/01/22 15:46:38;;;;;;;;;;;7.00;99.90;;;;;;6276496;22;19976;-56
2022/01/22 15:49:17;;;;;;;;;;;7.00;99.90;;;;;;6276611;22;19974;-53
2022/01/22 15:51:45;;;;;;;;;;;7.00;99.90;;;;;;6272175;22;20373;-55
2022/01/22 15:54:12;;;;;;;;;;;7.00;99.90;;;;;;6272807;22;19919;-53
2022/01/22 15:56:41;;;;;;;;;;;7.00;99.90;;;;;;6272093;22;19982;-49
2022/01/22 15:59:09;;;;;;;;;;;7.00;99.90;;;;;;6270973;22;20375;-52
2022/01/22 16:01:37;;;;;;;;;;;6.90;99.90;;;;;;6270344;22;19931;-57
2022/01/22 16:04:05;;;;;;;;;;;6.90;99.90;;;;;;6270150;22;19910;-55
2022/01/22 16:09:26;;;;;;;;;;;6.90;99.90;;;;;;6234790;22;20375;-49
2022/01/22 16:11:52;;;;;;;;;;;6.90;99.90;;;;;;6268270;22;19915;-53
2022/01/22 16:14:19;;;;;;;;;;;6.90;99.90;;;;;;6270620;22;19919;-51
2022/01/22 16:16:46;;;;;;;;;;;6.90;99.90;;;;;;6269330;22;19975;-50
2022/01/22 16:19:12;;;;;;;;;;;6.90;99.90;;;;;;6265415;22;20363;-48
2022/01/22 16:21:38;;;;;;;;;;;6.80;99.90;;;;;;6263382;22;20082;-48
2022/01/22 16:24:04;;;;;;;;;;;6.80;99.90;;;;;;6261355;22;20201;-48